createdAt,value
2022-12-28T00:01:31.121Z,-1.18
2022-12-28T00:04:02.875Z,-0.89
2022-12-28T00:06:29.701Z,-0.67
2022-12-28T00:08:57.297Z,-0.61
2022-12-28T00:11:30.764Z,-0.41
2022-12-28T00:14:01.857Z,-0.30
2022-12-28T00:16:33.124Z,-0.65
2022-12-28T00:19:01.699Z,-0.65
2022-12-28T00:21:28.810Z,-0.65
2022-12-28T00:23:58.266Z,-0.45
2022-12-28T00:26:26.664Z,-0.44
2022-12-28T00:28:56.923Z,-0.63
2022-12-28T00:31:28.868Z,-0.72
2022-12-28T00:33:55.604Z,-0.73
2022-12-28T00:36:22.202Z,-0.68
2022-12-28T00:38:48.833Z,-0.64
2022-12-28T00:41:15.421Z,-0.63
2022-12-28T00:43:42.112Z,-0.66
2022-12-28T00:46:08.806Z,-0.35
2022-12-28T00:48:35.486Z,-0.67
2022-12-28T00:51:07.769Z,-0.71
2022-12-28T00:53:34.558Z,-1.22
2022-12-28T00:56:15.389Z,-0.97
2022-12-28T00:58:42.625Z,-0.77
2022-12-28T01:01:28.848Z,-0.62
2022-12-28T01:03:56.526Z,-0.72
2022-12-28T01:06:23.156Z,-0.68
2022-12-28T01:08:49.766Z,-0.73
2022-12-28T01:11:25.101Z,-0.79
2022-12-28T01:13:54.118Z,-0.76
2022-12-28T01:16:23.984Z,-0.66
2022-12-28T01:18:56.455Z,-0.70
2022-12-28T01:21:26.703Z,-0.68
2022-12-28T01:23:56.569Z,-0.86
2022-12-28T01:26:24.372Z,-0.78
2022-12-28T01:28:51.051Z,-0.93
2022-12-28T01:31:19.353Z,-2.08
2022-12-28T01:33:46.917Z,-1.83
2022-12-28T01:36:24.869Z,-1.42
2022-12-28T01:38:59.955Z,-1.15
2022-12-28T01:41:28.752Z,-1.11
2022-12-28T01:43:55.300Z,-1.11
2022-12-28T01:46:27.510Z,-0.99
2022-12-28T01:49:08.403Z,-1.27
2022-12-28T01:51:42.306Z,-1.28
2022-12-28T01:54:09.266Z,-1.10
2022-12-28T01:56:36.813Z,-1.56
2022-12-28T01:59:03.710Z,-1.37
2022-12-28T02:01:30.583Z,-1.42
2022-12-28T02:03:57.332Z,-1.53
2022-12-28T02:06:23.947Z,-1.51
2022-12-28T02:08:50.581Z,-1.78
2022-12-28T02:11:19.281Z,-1.99
2022-12-28T02:13:51.252Z,-1.85
2022-12-28T02:16:18.484Z,-2.13
2022-12-28T02:18:46.780Z,-2.32
2022-12-28T02:21:23.650Z,-2.52
2022-12-28T02:24:08.817Z,-2.27
2022-12-28T02:27:06.260Z,-2.13
2022-12-28T02:30:10.193Z,-1.69
2022-12-28T02:33:00.758Z,-1.54
2022-12-28T02:35:54.309Z,-1.34
2022-12-28T02:38:42.885Z,-1.05
2022-12-28T02:41:13.772Z,-1.10
2022-12-28T02:43:40.631Z,-1.03
2022-12-28T02:46:28.938Z,-1.02
2022-12-28T02:48:55.665Z,-0.98
2022-12-28T02:51:28.433Z,-1.65
2022-12-28T02:54:00.733Z,-2.11
2022-12-28T02:56:52.857Z,-1.89
2022-12-28T02:59:22.398Z,-1.69
2022-12-28T03:01:51.795Z,-1.54
2022-12-28T03:04:33.229Z,-1.41
2022-12-28T03:07:21.551Z,-1.50
2022-12-28T03:10:00.278Z,-1.48
2022-12-28T03:12:40.324Z,-2.24
2022-12-28T03:15:12.038Z,-1.92
2022-12-28T03:17:42.521Z,-1.70
2022-12-28T03:20:16.876Z,-1.63
2022-12-28T03:22:45.525Z,-1.47
2022-12-28T03:25:17.351Z,-1.44
2022-12-28T03:27:46.136Z,-1.57
2022-12-28T03:30:18.337Z,-1.64
2022-12-28T03:32:47.615Z,-1.56
2022-12-28T03:35:14.856Z,-1.59
2022-12-28T03:37:52.604Z,-1.53
2022-12-28T03:40:30.597Z,-1.56
2022-12-28T03:43:07.796Z,-1.29
2022-12-28T03:45:50.316Z,-1.55
2022-12-28T03:48:17.754Z,-1.55
2022-12-28T03:50:47.767Z,-1.68
2022-12-28T03:53:19.096Z,-1.78
2022-12-28T03:55:45.756Z,-1.74
2022-12-28T03:58:12.503Z,-1.89
2022-12-28T04:00:39.138Z,-1.69
2022-12-28T04:03:05.832Z,-1.57
2022-12-28T04:05:32.529Z,-1.60
2022-12-28T04:07:59.103Z,-1.73
2022-12-28T04:10:25.696Z,-1.59
2022-12-28T04:12:56.091Z,-1.76
2022-12-28T04:15:22.689Z,-1.64
2022-12-28T04:17:49.311Z,-1.62
2022-12-28T04:20:15.968Z,-1.49
2022-12-28T04:22:42.542Z,-1.36
2022-12-28T04:25:09.402Z,-1.28
2022-12-28T04:27:36.000Z,-1.39
2022-12-28T04:30:02.594Z,-1.44
2022-12-28T04:32:29.201Z,-1.60
2022-12-28T04:34:55.810Z,-1.48
2022-12-28T04:37:22.420Z,-0.95
2022-12-28T04:39:54.920Z,-1.37
2022-12-28T04:42:25.658Z,-1.59
2022-12-28T04:44:52.381Z,-1.81
2022-12-28T04:47:18.991Z,-2.02
2022-12-28T04:49:45.623Z,-1.83
2022-12-28T04:52:12.303Z,-1.78
2022-12-28T04:54:38.923Z,-1.98
2022-12-28T04:57:05.592Z,-1.88
2022-12-28T04:59:32.209Z,-1.84
2022-12-28T05:01:58.924Z,-1.77
2022-12-28T05:04:25.978Z,-1.78
2022-12-28T05:06:52.558Z,-1.93
2022-12-28T05:09:19.183Z,-1.82
2022-12-28T05:11:46.860Z,-1.67
2022-12-28T05:14:13.484Z,-1.83
2022-12-28T05:16:40.727Z,-2.11
2022-12-28T05:19:07.392Z,-2.21
2022-12-28T05:21:34.199Z,-2.15
2022-12-28T05:24:00.970Z,-2.13
2022-12-28T05:26:29.346Z,-2.01
2022-12-28T05:28:56.806Z,-1.93
2022-12-28T05:31:23.739Z,-1.98
2022-12-28T05:33:50.460Z,-2.08
2022-12-28T05:36:22.285Z,-2.18
2022-12-28T05:38:49.191Z,-2.05
2022-12-28T05:41:19.187Z,-2.12
2022-12-28T05:43:46.405Z,-2.01
2022-12-28T05:46:16.271Z,-2.01
2022-12-28T05:48:43.584Z,-2.02
2022-12-28T05:51:15.459Z,-2.22
2022-12-28T05:53:43.052Z,-2.42
2022-12-28T05:56:15.337Z,-2.72
2022-12-28T05:58:43.250Z,-2.36
2022-12-28T06:01:20.152Z,-2.29
2022-12-28T06:03:48.814Z,-2.30
2022-12-28T06:06:17.737Z,-2.38
2022-12-28T06:08:45.772Z,-2.60
2022-12-28T06:11:17.749Z,-2.25
2022-12-28T06:13:45.001Z,-2.09
2022-12-28T06:16:15.484Z,-2.04
2022-12-28T06:18:43.255Z,-2.11
2022-12-28T06:21:23.468Z,-2.14
2022-12-28T06:23:50.542Z,-2.00
2022-12-28T06:26:20.566Z,-1.71
2022-12-28T06:28:48.089Z,-2.11
2022-12-28T06:31:17.728Z,-2.75
2022-12-28T06:33:45.342Z,-2.50
2022-12-28T06:36:20.357Z,-2.33
2022-12-28T06:38:48.949Z,-2.28
2022-12-28T06:41:17.822Z,-2.43
2022-12-28T06:43:45.711Z,-2.41
2022-12-28T06:46:14.059Z,-2.44
2022-12-28T06:48:41.507Z,-2.46
2022-12-28T06:51:12.844Z,-2.37
2022-12-28T06:53:39.898Z,-2.35
2022-12-28T06:56:13.543Z,-2.35
2022-12-28T06:58:40.811Z,-2.23
2022-12-28T07:01:09.335Z,-2.31
2022-12-28T07:03:36.125Z,-2.20
2022-12-28T07:06:04.706Z,-1.90
2022-12-28T07:08:31.838Z,-1.97
2022-12-28T07:11:24.883Z,-2.23
2022-12-28T07:13:51.550Z,-2.23
2022-12-28T07:16:20.625Z,-2.22
2022-12-28T07:18:47.466Z,-2.25
2022-12-28T07:21:16.199Z,-2.27
2022-12-28T07:23:43.230Z,-2.16
2022-12-28T07:26:13.439Z,-2.31
2022-12-28T07:28:41.982Z,-2.23
2022-12-28T07:31:11.680Z,-2.38
2022-12-28T07:33:38.771Z,-2.35
2022-12-28T07:36:07.409Z,-2.33
2022-12-28T07:38:34.985Z,-2.20
2022-12-28T07:41:03.560Z,-2.14
2022-12-28T07:43:33.365Z,-2.17
2022-12-28T07:46:05.256Z,-2.08
2022-12-28T07:48:33.309Z,-2.26
2022-12-28T07:51:26.034Z,-2.45
2022-12-28T07:53:54.200Z,-2.22
2022-12-28T07:56:22.697Z,-2.03
2022-12-28T07:58:54.309Z,-2.14
2022-12-28T08:01:24.607Z,-2.03
2022-12-28T08:03:57.342Z,-2.02
2022-12-28T08:06:25.946Z,-1.87
2022-12-28T08:08:55.444Z,-1.97
2022-12-28T08:11:25.091Z,-2.07
2022-12-28T08:13:54.070Z,-2.05
2022-12-28T08:16:22.115Z,-2.08
2022-12-28T08:18:49.566Z,-1.95
2022-12-28T08:21:18.320Z,-1.98
2022-12-28T08:23:44.967Z,-2.13
2022-12-28T08:26:23.904Z,-1.84
2022-12-28T08:28:54.099Z,-1.27
2022-12-28T08:31:26.834Z,-1.22
2022-12-28T08:33:55.050Z,-1.39
2022-12-28T08:36:22.493Z,-0.95
2022-12-28T08:38:50.056Z,-1.32
2022-12-28T08:41:20.381Z,-1.09
2022-12-28T08:43:47.981Z,-0.46
2022-12-28T08:46:17.767Z,-0.46
2022-12-28T08:48:45.384Z,-0.61
2022-12-28T08:51:17.404Z,-0.62
2022-12-28T08:53:44.962Z,-0.99
2022-12-28T08:56:21.740Z,-0.60
2022-12-28T08:58:49.442Z,-0.01
2022-12-28T09:01:19.497Z,0.33
2022-12-28T09:03:48.503Z,0.45
2022-12-28T09:06:21.775Z,0.34
2022-12-28T09:09:04.788Z,-0.10
2022-12-28T09:11:33.044Z,0.07
2022-12-28T09:13:59.714Z,0.26
2022-12-28T09:16:27.898Z,0.14
2022-12-28T09:19:02.632Z,0.68
2022-12-28T09:21:33.224Z,0.37
2022-12-28T09:23:59.913Z,0.77
2022-12-28T09:26:29.699Z,0.85
2022-12-28T09:28:59.079Z,1.07
2022-12-28T09:31:28.505Z,1.21
2022-12-28T09:34:34.425Z,1.43
2022-12-28T09:36:44.297Z,1.29
2022-12-28T09:39:16.265Z,0.96
2022-12-28T09:41:57.781Z,0.91
2022-12-28T09:44:33.668Z,1.19
2022-12-28T09:47:04.899Z,1.28
2022-12-28T09:49:58.999Z,1.22
2022-12-28T09:52:49.807Z,1.16
2022-12-28T09:55:18.794Z,1.01
2022-12-28T09:57:50.888Z,1.50
2022-12-28T10:00:21.112Z,1.34
2022-12-28T10:02:53.072Z,1.79
2022-12-28T10:05:21.373Z,1.81
2022-12-28T10:07:48.324Z,1.76
2022-12-28T10:10:20.237Z,2.46
2022-12-28T10:12:47.628Z,2.15
2022-12-28T10:15:15.956Z,2.12
2022-12-28T10:17:43.544Z,1.80
2022-12-28T10:20:19.606Z,2.41
2022-12-28T10:22:55.755Z,2.79
2022-12-28T10:25:25.057Z,2.81
2022-12-28T10:27:52.859Z,2.31
2022-12-28T10:30:24.869Z,2.89
2022-12-28T10:33:02.068Z,3.05
2022-12-28T10:35:34.082Z,3.02
2022-12-28T10:38:07.309Z,2.95
2022-12-28T10:40:38.124Z,3.01
2022-12-28T10:43:10.489Z,3.13
2022-12-28T10:45:48.459Z,3.26
2022-12-28T10:48:19.431Z,3.34
2022-12-28T10:50:59.212Z,3.21
2022-12-28T10:53:32.656Z,3.75
2022-12-28T10:56:14.525Z,3.12
2022-12-28T10:58:45.799Z,3.30
2022-12-28T11:01:12.462Z,3.26
2022-12-28T11:03:46.405Z,3.59
2022-12-28T11:06:15.235Z,3.26
2022-12-28T11:08:43.499Z,3.32
2022-12-28T11:11:19.699Z,3.26
2022-12-28T11:13:51.682Z,3.22
2022-12-28T11:16:18.340Z,3.00
2022-12-28T11:18:45.131Z,3.64
2022-12-28T11:21:21.823Z,3.46
2022-12-28T11:23:50.831Z,2.96
2022-12-28T11:26:19.046Z,3.38
2022-12-28T11:28:49.241Z,3.55
2022-12-28T11:31:32.084Z,3.32
2022-12-28T11:34:01.464Z,3.60
2022-12-28T11:36:28.408Z,3.33
2022-12-28T11:38:56.877Z,3.27
2022-12-28T11:41:24.779Z,3.31
2022-12-28T11:43:59.352Z,3.54
2022-12-28T11:46:25.889Z,3.64
2022-12-28T11:49:01.105Z,3.51
2022-12-28T11:51:35.966Z,3.73
2022-12-28T11:54:48.479Z,3.67
2022-12-28T11:57:36.072Z,3.57
2022-12-28T12:00:37.857Z,3.92
2022-12-28T12:03:04.670Z,3.64
2022-12-28T12:05:37.280Z,3.94
2022-12-28T12:08:09.979Z,4.08
2022-12-28T12:10:38.003Z,4.51
2022-12-28T12:13:24.761Z,4.56
2022-12-28T12:16:03.944Z,4.39
2022-12-28T12:18:40.166Z,4.60
2022-12-28T12:21:13.532Z,5.05
2022-12-28T12:24:01.938Z,5.15
2022-12-28T12:26:35.632Z,5.10
2022-12-28T12:29:11.481Z,5.03
2022-12-28T12:31:47.028Z,4.98
2022-12-28T12:34:29.441Z,5.10
2022-12-28T12:37:18.317Z,5.14
2022-12-28T12:39:58.532Z,5.07
2022-12-28T12:42:35.999Z,4.90
2022-12-28T12:45:27.478Z,5.05
2022-12-28T12:48:03.322Z,5.33
2022-12-28T12:50:41.802Z,5.34
2022-12-28T12:53:43.140Z,5.22
2022-12-28T12:56:38.820Z,4.63
2022-12-28T12:59:29.539Z,4.79
2022-12-28T13:01:58.981Z,4.96
2022-12-28T13:04:29.367Z,4.86
2022-12-28T13:07:00.325Z,4.59
2022-12-28T13:09:30.080Z,4.55
2022-12-28T13:11:58.285Z,4.32
2022-12-28T13:14:25.709Z,4.53
2022-12-28T13:16:55.542Z,4.66
2022-12-28T13:19:27.895Z,5.07
2022-12-28T13:21:55.602Z,5.05
2022-12-28T13:24:28.136Z,4.79
2022-12-28T13:26:56.509Z,4.59
2022-12-28T13:29:27.243Z,4.72
2022-12-28T13:31:54.389Z,4.71
2022-12-28T13:34:27.166Z,4.85
2022-12-28T13:36:55.862Z,4.58
2022-12-28T13:39:29.195Z,4.77
2022-12-28T13:42:00.640Z,4.64
2022-12-28T13:44:46.111Z,4.27
2022-12-28T13:47:31.739Z,4.38
2022-12-28T13:50:07.566Z,4.06
2022-12-28T13:52:42.556Z,4.08
2022-12-28T13:55:16.989Z,4.34
2022-12-28T13:57:51.461Z,4.25
2022-12-28T14:00:23.209Z,4.11
2022-12-28T14:02:53.125Z,4.11
2022-12-28T14:05:24.355Z,4.31
2022-12-28T14:07:54.397Z,4.45
2022-12-28T14:10:22.475Z,4.30
2022-12-28T14:12:50.606Z,4.31
2022-12-28T14:15:18.671Z,4.57
2022-12-28T14:17:50.956Z,4.35
2022-12-28T14:20:19.664Z,4.07
2022-12-28T14:22:46.496Z,4.18
2022-12-28T14:25:15.741Z,4.32
2022-12-28T14:28:03.203Z,4.59
2022-12-28T14:30:33.848Z,4.30
2022-12-28T14:36:01.644Z,4.52
2022-12-28T14:38:39.538Z,4.55
2022-12-28T14:41:07.565Z,4.43
2022-12-28T14:43:36.097Z,4.21
2022-12-28T14:46:36.515Z,3.99
2022-12-28T14:49:28.019Z,4.24
2022-12-28T14:52:08.957Z,4.02
2022-12-28T14:54:50.356Z,3.93
2022-12-28T14:57:32.098Z,3.80
2022-12-28T15:00:06.103Z,3.68
2022-12-28T15:02:35.640Z,3.60
2022-12-28T15:05:03.152Z,3.79
2022-12-28T15:07:31.576Z,3.75
2022-12-28T15:09:58.238Z,3.62
2022-12-28T15:12:24.899Z,3.25
2022-12-28T15:14:51.752Z,3.17
2022-12-28T15:17:18.952Z,3.44
2022-12-28T15:19:45.838Z,3.40
2022-12-28T15:22:12.800Z,3.69
2022-12-28T15:24:39.466Z,3.83
2022-12-28T15:27:06.096Z,3.42
2022-12-28T15:29:56.192Z,3.24
2022-12-28T15:32:19.352Z,2.69
2022-12-28T15:34:45.960Z,2.36
2022-12-28T15:37:12.535Z,2.36
2022-12-28T15:39:39.137Z,2.31
2022-12-28T15:42:05.727Z,2.28
2022-12-28T15:44:32.330Z,2.32
2022-12-28T15:46:59.268Z,2.24
2022-12-28T15:49:25.926Z,2.29
2022-12-28T15:51:52.716Z,2.20
2022-12-28T15:54:19.356Z,2.21
2022-12-28T15:56:52.782Z,2.11
2022-12-28T15:59:20.032Z,2.28
2022-12-28T16:01:46.847Z,2.31
2022-12-28T16:04:13.666Z,2.41
2022-12-28T16:06:44.755Z,2.51
2022-12-28T16:09:12.935Z,2.62
2022-12-28T16:11:40.421Z,2.28
2022-12-28T16:14:11.743Z,2.10
2022-12-28T16:16:40.075Z,2.02
2022-12-28T16:19:07.434Z,2.04
2022-12-28T16:21:34.335Z,2.14
2022-12-28T16:24:01.114Z,2.04
2022-12-28T16:26:28.332Z,2.09
2022-12-28T16:28:55.144Z,2.23
2022-12-28T16:31:33.960Z,2.04
2022-12-28T16:34:04.372Z,1.94
2022-12-28T16:36:31.595Z,2.12
2022-12-28T16:38:58.741Z,1.99
2022-12-28T16:41:28.734Z,1.56
2022-12-28T16:44:07.678Z,2.14
2022-12-28T16:46:34.306Z,2.21
2022-12-28T16:49:02.082Z,2.16
2022-12-28T16:51:32.114Z,2.12
2022-12-28T16:53:58.762Z,2.23
2022-12-28T16:56:25.460Z,2.47
2022-12-28T16:58:56.161Z,2.27
2022-12-28T17:01:22.871Z,2.10
2022-12-28T17:03:49.604Z,1.99
2022-12-28T17:06:16.306Z,1.85
2022-12-28T17:08:43.090Z,1.91
2022-12-28T17:11:11.379Z,1.95
2022-12-28T17:13:38.334Z,1.87
2022-12-28T17:16:06.239Z,2.00
2022-12-28T17:18:33.255Z,2.36
2022-12-28T17:21:04.970Z,2.28
2022-12-28T17:23:33.825Z,2.47
2022-12-28T17:26:00.476Z,2.30
2022-12-28T17:28:27.158Z,2.04
2022-12-28T17:31:15.481Z,2.08
2022-12-28T17:33:50.561Z,1.87
2022-12-28T17:36:17.685Z,2.38
2022-12-28T17:38:44.339Z,1.97
2022-12-28T17:41:16.148Z,1.98
2022-12-28T17:43:47.317Z,2.21
2022-12-28T17:46:14.059Z,2.39
2022-12-28T17:48:40.686Z,2.36
2022-12-28T17:51:11.182Z,2.17
2022-12-28T17:53:39.338Z,2.00
2022-12-28T17:56:09.385Z,1.84
2022-12-28T17:58:36.020Z,2.03
2022-12-28T18:01:03.461Z,2.18
2022-12-28T18:03:33.863Z,1.79
2022-12-28T18:06:01.277Z,1.54
2022-12-28T18:08:28.405Z,1.91
2022-12-28T18:10:55.082Z,1.86
2022-12-28T18:13:22.447Z,1.78
2022-12-28T18:15:49.434Z,1.81
2022-12-28T18:18:17.242Z,1.78
2022-12-28T18:20:44.522Z,1.72
2022-12-28T18:23:11.931Z,2.08
2022-12-28T18:25:38.709Z,1.81
2022-12-28T18:28:05.439Z,1.79
2022-12-28T18:30:32.080Z,1.84
2022-12-28T18:32:58.762Z,1.82
2022-12-28T18:35:25.343Z,1.52
2022-12-28T18:37:51.966Z,1.25
2022-12-28T18:40:18.583Z,1.30
2022-12-28T18:42:45.185Z,1.52
2022-12-28T18:45:11.777Z,1.58
2022-12-28T18:47:38.408Z,1.59
2022-12-28T18:50:05.429Z,1.49
2022-12-28T18:52:32.013Z,1.59
2022-12-28T18:54:58.604Z,1.75
2022-12-28T18:57:25.191Z,2.01
2022-12-28T18:59:51.837Z,1.66
2022-12-28T19:02:19.901Z,1.55
2022-12-28T19:04:46.804Z,1.49
2022-12-28T19:07:13.490Z,1.40
2022-12-28T19:09:40.075Z,1.44
2022-12-28T19:12:06.848Z,1.33
2022-12-28T19:14:33.447Z,1.12
2022-12-28T19:17:00.030Z,1.10
2022-12-28T19:19:26.621Z,1.06
2022-12-28T19:21:58.452Z,1.19
2022-12-28T19:24:25.385Z,1.05
2022-12-28T19:26:51.976Z,1.16
2022-12-28T19:29:18.540Z,1.16
2022-12-28T19:31:45.249Z,0.93
2022-12-28T19:34:11.919Z,1.09
2022-12-28T19:36:38.561Z,1.06
2022-12-28T19:39:05.205Z,0.85
2022-12-28T19:41:31.906Z,0.77
2022-12-28T19:43:58.492Z,0.78
2022-12-28T19:46:26.228Z,0.72
2022-12-28T19:48:54.040Z,0.70
2022-12-28T19:51:22.563Z,0.68
2022-12-28T19:53:53.294Z,0.61
2022-12-28T19:56:20.903Z,0.52
2022-12-28T19:58:47.650Z,0.55
2022-12-28T20:01:19.551Z,0.43
2022-12-28T20:03:47.315Z,0.62
2022-12-28T20:06:17.823Z,0.56
2022-12-28T20:08:49.391Z,0.40
2022-12-28T20:11:17.155Z,0.28
2022-12-28T20:13:52.689Z,0.39
2022-12-28T20:16:19.817Z,0.38
2022-12-28T20:18:47.293Z,0.31
2022-12-28T20:21:22.025Z,0.22
2022-12-28T20:23:50.418Z,-0.05
2022-12-28T20:26:19.082Z,-0.08
2022-12-28T20:28:46.045Z,0.08
2022-12-28T20:31:14.397Z,0.13
2022-12-28T20:33:42.015Z,0.30
2022-12-28T20:36:12.874Z,0.18
2022-12-28T20:38:39.555Z,0.18
2022-12-28T20:41:07.354Z,0.19
2022-12-28T20:43:34.483Z,0.20
2022-12-28T20:46:02.111Z,-0.08
2022-12-28T20:48:29.359Z,0.02
2022-12-28T20:51:00.208Z,0.02
2022-12-28T20:53:27.949Z,0.17
2022-12-28T20:56:06.046Z,0.05
2022-12-28T20:58:32.630Z,0.14
2022-12-28T21:01:57.198Z,0.05
2022-12-28T21:04:24.374Z,0.10
2022-12-28T21:06:54.608Z,-0.09
2022-12-28T21:09:21.909Z,-0.13
2022-12-28T21:11:48.535Z,0.05
2022-12-28T21:14:15.129Z,0.09
2022-12-28T21:16:41.764Z,-0.06
2022-12-28T21:19:09.831Z,-0.05
2022-12-28T21:21:36.481Z,-0.09
2022-12-28T21:24:03.901Z,0.12
2022-12-28T21:26:30.645Z,-0.06
2022-12-28T21:28:57.236Z,-0.20
2022-12-28T21:31:24.270Z,-0.30
2022-12-28T21:33:55.271Z,-0.26
2022-12-28T21:36:22.278Z,-0.27
2022-12-28T21:38:49.366Z,-0.28
2022-12-28T21:41:19.201Z,-0.23
2022-12-28T21:43:45.771Z,-0.16
2022-12-28T21:46:14.477Z,-0.29
2022-12-28T21:48:41.959Z,0.10
2022-12-28T21:51:08.494Z,-0.31
2022-12-28T21:53:35.184Z,-0.25
2022-12-28T21:56:01.778Z,-0.01
2022-12-28T21:58:28.379Z,-0.19
2022-12-28T22:00:59.193Z,-0.41
2022-12-28T22:03:26.042Z,-0.48
2022-12-28T22:05:52.707Z,-0.40
2022-12-28T22:08:19.283Z,-0.51
2022-12-28T22:10:45.883Z,-0.49
2022-12-28T22:13:12.568Z,-0.59
2022-12-28T22:15:39.155Z,-0.63
2022-12-28T22:21:04.994Z,-0.59
2022-12-28T22:23:34.719Z,-0.57
2022-12-28T22:26:02.209Z,-0.62
2022-12-28T22:28:28.832Z,-0.57
2022-12-28T22:30:55.407Z,-0.68
2022-12-28T22:33:22.005Z,-0.51
2022-12-28T22:35:48.590Z,-0.20
2022-12-28T22:38:15.185Z,-0.53
2022-12-28T22:40:41.846Z,-0.77
2022-12-28T22:43:08.442Z,-0.75
2022-12-28T22:45:35.055Z,-0.56
2022-12-28T22:48:01.742Z,-0.83
2022-12-28T22:50:28.394Z,-0.61
2022-12-28T22:52:56.117Z,-0.82
2022-12-28T22:55:22.744Z,-0.89
2022-12-28T22:57:49.470Z,-0.93
2022-12-28T23:00:18.217Z,-0.96
2022-12-28T23:02:45.012Z,-0.96
2022-12-28T23:05:11.775Z,-1.00
2022-12-28T23:07:38.456Z,-0.95
2022-12-28T23:10:06.891Z,-1.01
2022-12-28T23:12:33.498Z,-1.06
2022-12-28T23:15:00.097Z,-0.98
2022-12-28T23:17:26.857Z,-0.84
2022-12-28T23:19:53.461Z,-0.87
2022-12-28T23:22:25.472Z,-1.04
2022-12-28T23:24:52.060Z,-0.89
2022-12-28T23:27:18.669Z,-0.95
2022-12-28T23:29:46.161Z,-1.01
2022-12-28T23:32:13.124Z,-0.81
2022-12-28T23:34:39.736Z,-0.85
2022-12-28T23:37:06.422Z,-0.79
2022-12-28T23:39:33.107Z,-0.70
2022-12-28T23:41:59.715Z,-0.79
2022-12-28T23:44:26.783Z,-1.02
2022-12-28T23:46:59.012Z,-0.95
2022-12-28T23:49:26.683Z,-0.97
2022-12-28T23:51:53.368Z,-0.99
2022-12-28T23:54:20.745Z,-0.90
2022-12-28T23:56:48.167Z,-0.94
2022-12-28T23:59:15.376Z,-0.92
